sensor_id;sensor_type;location;lat;lon;timestamp;pressure;altitude;pressure_sealevel;temperature;humidity
56414;BME280;42318;48.452;19.526;2023-02-20T00:05:12;98750.06;;;21.01;46.29
56414;BME280;42318;48.452;19.526;2023-02-20T00:12:44;98762.53;;;20.97;46.30
56414;BME280;42318;48.452;19.526;2023-02-20T00:20:17;98783.25;;;20.98;46.44
56414;BME280;42318;48.452;19.526;2023-02-20T00:27:48;98775.34;;;20.97;46.32
56414;BME280;42318;48.452;19.526;2023-02-20T00:35:20;98781.59;;;20.97;46.62
56414;BME280;42318;48.452;19.526;2023-02-20T00:42:51;98773.69;;;20.96;46.27
56414;BME280;42318;48.452;19.526;2023-02-20T00:50:22;98771.22;;;20.94;46.36
56414;BME280;42318;48.452;19.526;2023-02-20T00:57:53;98781.03;;;20.95;46.27
56414;BME280;42318;48.452;19.526;2023-02-20T01:05:25;98775.59;;;20.95;46.21
56414;BME280;42318;48.452;19.526;2023-02-20T01:12:55;98783.19;;;20.93;46.28
56414;BME280;42318;48.452;19.526;2023-02-20T01:20:26;98773.63;;;20.91;46.22
56414;BME280;42318;48.452;19.526;2023-02-20T01:27:57;98766.78;;;20.88;46.10
56414;BME280;42318;48.452;19.526;2023-02-20T01:35:28;98763.81;;;20.90;46.45
56414;BME280;42318;48.452;19.526;2023-02-20T01:43:02;98765.22;;;20.92;46.10
56414;BME280;42318;48.452;19.526;2023-02-20T01:50:42;98777.19;;;20.91;45.96
56414;BME280;42318;48.452;19.526;2023-02-20T01:58:21;98773.38;;;20.92;46.17
56414;BME280;42318;48.452;19.526;2023-02-20T02:05:58;98778.81;;;20.92;45.98
56414;BME280;42318;48.452;19.526;2023-02-20T02:13:30;98787.25;;;20.91;46.30
56414;BME280;42318;48.452;19.526;2023-02-20T02:44:28;98802.78;;;20.90;45.90
56414;BME280;42318;48.452;19.526;2023-02-20T02:52:01;98782.06;;;20.89;45.73
56414;BME280;42318;48.452;19.526;2023-02-20T02:59:33;98773.06;;;20.89;46.18
56414;BME280;42318;48.452;19.526;2023-02-20T03:07:09;98796.50;;;20.90;45.80
56414;BME280;42318;48.452;19.526;2023-02-20T03:15:28;98813.91;;;20.89;45.91
56414;BME280;42318;48.452;19.526;2023-02-20T03:22:59;98816.84;;;20.82;46.07
56414;BME280;42318;48.452;19.526;2023-02-20T03:30:44;98809.81;;;20.86;45.84
56414;BME280;42318;48.452;19.526;2023-02-20T03:38:17;98826.16;;;20.86;45.68
56414;BME280;42318;48.452;19.526;2023-02-20T03:46:12;98859.34;;;20.83;45.80
56414;BME280;42318;48.452;19.526;2023-02-20T03:53:48;98866.69;;;20.83;45.56
56414;BME280;42318;48.452;19.526;2023-02-20T04:01:21;98852.47;;;20.81;45.87
56414;BME280;42318;48.452;19.526;2023-02-20T04:09:00;98831.53;;;20.81;45.61
56414;BME280;42318;48.452;19.526;2023-02-20T04:16:35;98825.56;;;20.84;45.61
56414;BME280;42318;48.452;19.526;2023-02-20T04:24:16;98831.59;;;20.86;45.39
56414;BME280;42318;48.452;19.526;2023-02-20T04:31:47;98834.63;;;20.90;45.74
56414;BME280;42318;48.452;19.526;2023-02-20T04:39:18;98842.56;;;20.91;45.50
56414;BME280;42318;48.452;19.526;2023-02-20T04:46:51;98856.75;;;20.93;45.32
56414;BME280;42318;48.452;19.526;2023-02-20T04:54:22;98845.84;;;20.93;45.29
56414;BME280;42318;48.452;19.526;2023-02-20T05:01:53;98838.50;;;20.94;45.75
56414;BME280;42318;48.452;19.526;2023-02-20T05:09:26;98847.25;;;20.96;45.48
56414;BME280;42318;48.452;19.526;2023-02-20T05:16:56;98850.78;;;20.96;45.43
56414;BME280;42318;48.452;19.526;2023-02-20T05:24:27;98854.00;;;20.93;45.43
56414;BME280;42318;48.452;19.526;2023-02-20T05:31:58;98868.47;;;20.94;45.23
56414;BME280;42318;48.452;19.526;2023-02-20T05:39:29;98869.84;;;20.96;45.33
56414;BME280;42318;48.452;19.526;2023-02-20T05:47:00;98885.13;;;20.97;45.46
56414;BME280;42318;48.452;19.526;2023-02-20T05:54:31;98890.31;;;20.99;45.41
56414;BME280;42318;48.452;19.526;2023-02-20T06:02:03;98896.34;;;21.01;45.41
56414;BME280;42318;48.452;19.526;2023-02-20T06:09:34;98891.72;;;21.01;45.10
56414;BME280;42318;48.452;19.526;2023-02-20T06:17:04;98889.00;;;21.01;45.34
56414;BME280;42318;48.452;19.526;2023-02-20T06:24:35;98907.81;;;21.03;44.94
56414;BME280;42318;48.452;19.526;2023-02-20T06:32:06;98915.16;;;21.02;44.99
56414;BME280;42318;48.452;19.526;2023-02-20T06:39:37;98913.00;;;21.05;44.95
56414;BME280;42318;48.452;19.526;2023-02-20T06:47:10;98891.19;;;21.05;45.12
56414;BME280;42318;48.452;19.526;2023-02-20T06:54:42;98905.41;;;21.07;45.18
56414;BME280;42318;48.452;19.526;2023-02-20T07:02:14;98909.25;;;21.11;44.86
56414;BME280;42318;48.452;19.526;2023-02-20T07:09:45;98903.31;;;21.14;44.91
56414;BME280;42318;48.452;19.526;2023-02-20T07:17:16;98905.53;;;21.17;45.16
56414;BME280;42318;48.452;19.526;2023-02-20T07:24:51;98902.84;;;21.22;45.46
56414;BME280;42318;48.452;19.526;2023-02-20T07:32:22;98901.41;;;21.31;45.97
56414;BME280;42318;48.452;19.526;2023-02-20T07:39:53;98901.97;;;21.33;45.79
56414;BME280;42318;48.452;19.526;2023-02-20T07:47:24;98917.19;;;21.29;46.48
56414;BME280;42318;48.452;19.526;2023-02-20T07:54:55;98913.69;;;21.34;46.61
56414;BME280;42318;48.452;19.526;2023-02-20T08:02:26;98903.78;;;21.49;46.47
56414;BME280;42318;48.452;19.526;2023-02-20T08:10:04;98882.06;;;21.59;46.76
56414;BME280;42318;48.452;19.526;2023-02-20T08:17:59;98901.22;;;21.64;46.68
56414;BME280;42318;48.452;19.526;2023-02-20T08:25:45;98886.81;;;21.42;41.19
56414;BME280;42318;48.452;19.526;2023-02-20T08:33:32;98875.78;;;21.32;43.40
56414;BME280;42318;48.452;19.526;2023-02-20T08:41:19;98851.69;;;21.24;43.21
56414;BME280;42318;48.452;19.526;2023-02-20T08:49:08;98863.03;;;21.38;43.78
56414;BME280;42318;48.452;19.526;2023-02-20T08:57:04;98835.63;;;21.49;44.05
56414;BME280;42318;48.452;19.526;2023-02-20T09:04:50;98863.97;;;21.48;44.44
56414;BME280;42318;48.452;19.526;2023-02-20T09:12:47;98842.94;;;21.44;44.59
56414;BME280;42318;48.452;19.526;2023-02-20T09:20:37;98855.72;;;21.43;44.80
56414;BME280;42318;48.452;19.526;2023-02-20T09:28:26;98836.59;;;21.38;45.07
56414;BME280;42318;48.452;19.526;2023-02-20T09:36:15;98838.19;;;21.34;45.68
56414;BME280;42318;48.452;19.526;2023-02-20T09:44:23;98818.28;;;21.34;45.94
56414;BME280;42318;48.452;19.526;2023-02-20T09:52:14;98817.53;;;21.38;46.01
56414;BME280;42318;48.452;19.526;2023-02-20T10:00:07;98812.31;;;21.37;46.08
56414;BME280;42318;48.452;19.526;2023-02-20T10:07:51;98797.31;;;21.34;46.49
56414;BME280;42318;48.452;19.526;2023-02-20T10:15:49;98795.03;;;21.26;46.38
56414;BME280;42318;48.452;19.526;2023-02-20T10:23:36;98793.97;;;21.27;47.08
56414;BME280;42318;48.452;19.526;2023-02-20T10:31:43;98770.66;;;21.19;46.83
56414;BME280;42318;48.452;19.526;2023-02-20T10:39:22;98764.03;;;21.10;47.23
56414;BME280;42318;48.452;19.526;2023-02-20T10:55:11;98747.84;;;20.98;47.14
56414;BME280;42318;48.452;19.526;2023-02-20T11:03:07;98728.97;;;20.92;47.04
56414;BME280;42318;48.452;19.526;2023-02-20T11:10:52;98719.97;;;20.91;47.45
56414;BME280;42318;48.452;19.526;2023-02-20T11:18:40;98693.25;;;20.88;47.59
56414;BME280;42318;48.452;19.526;2023-02-20T11:26:34;98697.06;;;20.87;47.83
56414;BME280;42318;48.452;19.526;2023-02-20T11:34:25;98673.03;;;21.11;47.66
56414;BME280;42318;48.452;19.526;2023-02-20T11:42:15;98656.63;;;21.28;47.00
56414;BME280;42318;48.452;19.526;2023-02-20T11:50:22;98667.59;;;21.38;47.22
56414;BME280;42318;48.452;19.526;2023-02-20T11:58:00;98653.44;;;21.41;47.47
56414;BME280;42318;48.452;19.526;2023-02-20T12:05:47;98637.69;;;21.48;47.49
56414;BME280;42318;48.452;19.526;2023-02-20T12:13:29;98625.19;;;21.52;47.23
56414;BME280;42318;48.452;19.526;2023-02-20T12:29:22;98612.38;;;21.53;47.13
56414;BME280;42318;48.452;19.526;2023-02-20T12:37:18;98609.41;;;21.59;47.41
56414;BME280;42318;48.452;19.526;2023-02-20T13:00:59;98554.09;;;21.64;46.85
56414;BME280;42318;48.452;19.526;2023-02-20T13:17:27;98553.69;;;21.40;47.71
56414;BME280;42318;48.452;19.526;2023-02-20T13:33:11;98526.25;;;21.20;48.35
56414;BME280;42318;48.452;19.526;2023-02-20T13:56:01;98505.97;;;21.00;48.49
56414;BME280;42318;48.452;19.526;2023-02-20T14:03:36;98486.59;;;20.97;48.73
56414;BME280;42318;48.452;19.526;2023-02-20T14:11:31;98497.19;;;20.93;48.55
56414;BME280;42318;48.452;19.526;2023-02-20T14:19:26;98484.38;;;20.89;48.77
56414;BME280;42318;48.452;19.526;2023-02-20T14:27:27;98469.63;;;20.85;48.59
56414;BME280;42318;48.452;19.526;2023-02-20T14:43:26;98457.56;;;20.76;48.71
56414;BME280;42318;48.452;19.526;2023-02-20T14:51:23;98441.72;;;20.67;48.38
56414;BME280;42318;48.452;19.526;2023-02-20T14:59:24;98427.81;;;21.06;47.50
56414;BME280;42318;48.452;19.526;2023-02-20T15:07:05;98430.63;;;21.21;47.15
56414;BME280;42318;48.452;19.526;2023-02-20T15:14:44;98407.72;;;21.22;47.16
56414;BME280;42318;48.452;19.526;2023-02-20T15:22:35;98393.38;;;21.27;47.10
56414;BME280;42318;48.452;19.526;2023-02-20T15:30:19;98379.19;;;21.25;47.21
56414;BME280;42318;48.452;19.526;2023-02-20T15:38:01;98383.56;;;21.31;47.03
56414;BME280;42318;48.452;19.526;2023-02-20T15:45:43;98379.22;;;21.30;47.34
56414;BME280;42318;48.452;19.526;2023-02-20T15:53:25;98339.41;;;21.29;47.35
56414;BME280;42318;48.452;19.526;2023-02-20T16:01:04;98339.72;;;21.38;46.88
56414;BME280;42318;48.452;19.526;2023-02-20T16:08:35;98314.94;;;21.44;46.79
56414;BME280;42318;48.452;19.526;2023-02-20T16:16:18;98288.75;;;21.43;46.79
56414;BME280;42318;48.452;19.526;2023-02-20T16:23:50;98287.94;;;21.43;47.61
56414;BME280;42318;48.452;19.526;2023-02-20T16:32:08;98280.31;;;21.45;47.87
56414;BME280;42318;48.452;19.526;2023-02-20T16:39:22;98277.84;;;21.43;48.92
56414;BME280;42318;48.452;19.526;2023-02-20T16:46:53;98274.59;;;21.46;48.89
56414;BME280;42318;48.452;19.526;2023-02-20T16:54:24;98295.03;;;21.44;49.27
56414;BME280;42318;48.452;19.526;2023-02-20T17:01:55;98292.00;;;21.25;49.76
56414;BME280;42318;48.452;19.526;2023-02-20T17:09:26;98291.34;;;21.08;50.69
56414;BME280;42318;48.452;19.526;2023-02-20T17:16:57;98277.13;;;20.95;51.07
56414;BME280;42318;48.452;19.526;2023-02-20T17:24:27;98267.28;;;20.84;51.38
56414;BME280;42318;48.452;19.526;2023-02-20T17:39:32;98272.28;;;21.08;52.99
56414;BME280;42318;48.452;19.526;2023-02-20T17:47:03;98276.88;;;20.97;52.46
56414;BME280;42318;48.452;19.526;2023-02-20T17:54:35;98247.41;;;20.84;53.08
56414;BME280;42318;48.452;19.526;2023-02-20T18:02:07;98251.72;;;20.80;53.20
56414;BME280;42318;48.452;19.526;2023-02-20T18:09:40;98228.03;;;20.75;52.86
56414;BME280;42318;48.452;19.526;2023-02-20T18:17:14;98200.06;;;21.00;52.24
56414;BME280;42318;48.452;19.526;2023-02-20T18:24:46;98201.19;;;21.14;51.56
56414;BME280;42318;48.452;19.526;2023-02-20T18:32:17;98185.13;;;21.18;51.33
56414;BME280;42318;48.452;19.526;2023-02-20T18:39:48;98174.75;;;21.20;51.12
56414;BME280;42318;48.452;19.526;2023-02-20T18:47:19;98164.97;;;21.24;50.95
56414;BME280;42318;48.452;19.526;2023-02-20T18:54:50;98165.22;;;21.22;50.48
56414;BME280;42318;48.452;19.526;2023-02-20T19:02:21;98160.13;;;21.26;50.39
56414;BME280;42318;48.452;19.526;2023-02-20T19:09:52;98159.28;;;21.25;50.39
56414;BME280;42318;48.452;19.526;2023-02-20T19:17:23;98148.66;;;21.29;50.36
56414;BME280;42318;48.452;19.526;2023-02-20T19:24:55;98145.13;;;21.28;50.25
56414;BME280;42318;48.452;19.526;2023-02-20T19:32:30;98136.69;;;21.30;50.08
56414;BME280;42318;48.452;19.526;2023-02-20T19:40:02;98131.50;;;21.34;50.22
56414;BME280;42318;48.452;19.526;2023-02-20T19:47:33;98106.72;;;21.25;51.27
56414;BME280;42318;48.452;19.526;2023-02-20T19:55:04;98101.81;;;21.27;51.13
56414;BME280;42318;48.452;19.526;2023-02-20T20:02:35;98093.63;;;21.27;51.36
56414;BME280;42318;48.452;19.526;2023-02-20T20:10:06;98092.53;;;21.28;50.97
56414;BME280;42318;48.452;19.526;2023-02-20T20:17:38;98082.72;;;21.27;50.74
56414;BME280;42318;48.452;19.526;2023-02-20T20:25:09;98076.97;;;21.23;51.11
56414;BME280;42318;48.452;19.526;2023-02-20T20:32:41;98056.56;;;21.26;50.56
56414;BME280;42318;48.452;19.526;2023-02-20T20:40:13;98055.47;;;21.27;50.66
56414;BME280;42318;48.452;19.526;2023-02-20T20:47:44;98035.31;;;21.28;50.45
56414;BME280;42318;48.452;19.526;2023-02-20T20:55:16;98000.94;;;21.22;50.69
56414;BME280;42318;48.452;19.526;2023-02-20T21:02:47;98002.59;;;21.23;50.22
56414;BME280;42318;48.452;19.526;2023-02-20T21:10:18;97988.97;;;21.23;50.72
56414;BME280;42318;48.452;19.526;2023-02-20T21:17:50;97987.31;;;21.22;50.35
56414;BME280;42318;48.452;19.526;2023-02-20T21:25:22;97991.19;;;21.26;50.52
56414;BME280;42318;48.452;19.526;2023-02-20T21:32:54;97985.44;;;21.33;50.20
56414;BME280;42318;48.452;19.526;2023-02-20T21:40:25;97968.00;;;21.34;50.19
56414;BME280;42318;48.452;19.526;2023-02-20T21:47:56;97961.19;;;21.31;50.19
56414;BME280;42318;48.452;19.526;2023-02-20T21:55:28;97946.44;;;21.37;50.00
56414;BME280;42318;48.452;19.526;2023-02-20T22:02:59;97924.13;;;21.35;49.82
56414;BME280;42318;48.452;19.526;2023-02-20T22:10:30;97922.75;;;21.38;49.45
56414;BME280;42318;48.452;19.526;2023-02-20T22:18:19;97920.28;;;21.36;49.26
56414;BME280;42318;48.452;19.526;2023-02-20T22:26:09;97920.84;;;21.38;49.43
56414;BME280;42318;48.452;19.526;2023-02-20T22:33:58;97904.75;;;21.37;49.29
56414;BME280;42318;48.452;19.526;2023-02-20T22:41:47;97900.41;;;21.36;48.98
56414;BME280;42318;48.452;19.526;2023-02-20T22:49:37;97891.38;;;21.40;49.01
56414;BME280;42318;48.452;19.526;2023-02-20T22:57:26;97889.22;;;21.37;48.87
56414;BME280;42318;48.452;19.526;2023-02-20T23:05:16;97880.50;;;21.35;49.00
56414;BME280;42318;48.452;19.526;2023-02-20T23:13:05;97891.66;;;21.39;48.97
56414;BME280;42318;48.452;19.526;2023-02-20T23:20:54;97888.13;;;21.38;48.38
56414;BME280;42318;48.452;19.526;2023-02-20T23:28:44;97883.78;;;21.37;48.45
56414;BME280;42318;48.452;19.526;2023-02-20T23:36:33;97891.38;;;21.40;48.46
56414;BME280;42318;48.452;19.526;2023-02-20T23:44:22;97907.47;;;21.37;48.66
56414;BME280;42318;48.452;19.526;2023-02-20T23:52:12;97891.13;;;21.37;48.58
